sensor_id;sensor_type;location;lat;lon;timestamp;P1;durP1;ratioP1;P2;durP2;ratioP2
19004;SDS011;9635;52.078;8.648;2022-08-19T00:00:14;13.25;;;7.50;;
19004;SDS011;9635;52.078;8.648;2022-08-19T00:05:20;10.30;;;7.60;;
19004;SDS011;9635;52.078;8.648;2022-08-19T00:10:24;11.82;;;8.40;;
19004;SDS011;9635;52.078;8.648;2022-08-19T00:15:27;10.98;;;7.55;;
19004;SDS011;9635;52.078;8.648;2022-08-19T00:20:31;10.23;;;8.63;;
19004;SDS011;9635;52.078;8.648;2022-08-19T00:25:34;11.45;;;8.82;;
19004;SDS011;9635;52.078;8.648;2022-08-19T00:30:37;14.52;;;9.77;;
19004;SDS011;9635;52.078;8.648;2022-08-19T00:35:42;12.70;;;9.02;;
19004;SDS011;9635;52.078;8.648;2022-08-19T00:40:44;16.27;;;9.95;;
19004;SDS011;9635;52.078;8.648;2022-08-19T00:45:47;15.57;;;9.82;;
19004;SDS011;9635;52.078;8.648;2022-08-19T00:50:52;14.65;;;10.93;;
19004;SDS011;9635;52.078;8.648;2022-08-19T00:55:58;16.48;;;10.95;;
19004;SDS011;9635;52.078;8.648;2022-08-19T01:01:03;14.43;;;11.10;;
19004;SDS011;9635;52.078;8.648;2022-08-19T01:06:08;18.33;;;11.88;;
19004;SDS011;9635;52.078;8.648;2022-08-19T01:11:11;19.98;;;13.82;;
19004;SDS011;9635;52.078;8.648;2022-08-19T01:16:14;16.40;;;11.85;;
19004;SDS011;9635;52.078;8.648;2022-08-19T01:21:20;16.02;;;13.20;;
19004;SDS011;9635;52.078;8.648;2022-08-19T01:26:31;16.35;;;12.32;;
19004;SDS011;9635;52.078;8.648;2022-08-19T01:31:42;17.20;;;11.93;;
19004;SDS011;9635;52.078;8.648;2022-08-19T01:36:45;15.68;;;12.55;;
19004;SDS011;9635;52.078;8.648;2022-08-19T01:41:51;20.17;;;14.88;;
19004;SDS011;9635;52.078;8.648;2022-08-19T01:46:55;19.42;;;14.95;;
19004;SDS011;9635;52.078;8.648;2022-08-19T01:51:59;17.38;;;14.05;;
19004;SDS011;9635;52.078;8.648;2022-08-19T01:57:05;19.05;;;13.50;;
19004;SDS011;9635;52.078;8.648;2022-08-19T02:02:10;19.88;;;14.68;;
19004;SDS011;9635;52.078;8.648;2022-08-19T02:07:13;22.77;;;14.60;;
19004;SDS011;9635;52.078;8.648;2022-08-19T02:12:18;22.35;;;15.15;;
19004;SDS011;9635;52.078;8.648;2022-08-19T02:17:22;20.23;;;14.60;;
19004;SDS011;9635;52.078;8.648;2022-08-19T02:22:25;20.38;;;15.68;;
19004;SDS011;9635;52.078;8.648;2022-08-19T02:27:29;21.92;;;15.75;;
19004;SDS011;9635;52.078;8.648;2022-08-19T02:32:32;21.55;;;14.95;;
19004;SDS011;9635;52.078;8.648;2022-08-19T02:37:44;22.00;;;15.65;;
19004;SDS011;9635;52.078;8.648;2022-08-19T02:43:07;20.00;;;15.95;;
19004;SDS011;9635;52.078;8.648;2022-08-19T02:48:10;17.15;;;14.15;;
19004;SDS011;9635;52.078;8.648;2022-08-19T02:53:22;21.88;;;15.65;;
19004;SDS011;9635;52.078;8.648;2022-08-19T02:58:27;20.75;;;16.27;;
19004;SDS011;9635;52.078;8.648;2022-08-19T03:03:31;21.58;;;16.05;;
19004;SDS011;9635;52.078;8.648;2022-08-19T03:08:35;22.08;;;14.93;;
19004;SDS011;9635;52.078;8.648;2022-08-19T03:13:40;22.05;;;16.58;;
19004;SDS011;9635;52.078;8.648;2022-08-19T03:18:44;22.67;;;16.02;;
19004;SDS011;9635;52.078;8.648;2022-08-19T03:23:47;23.35;;;15.50;;
19004;SDS011;9635;52.078;8.648;2022-08-19T03:28:52;21.67;;;17.02;;
19004;SDS011;9635;52.078;8.648;2022-08-19T03:33:59;24.42;;;16.98;;
19004;SDS011;9635;52.078;8.648;2022-08-19T03:39:03;25.45;;;16.88;;
19004;SDS011;9635;52.078;8.648;2022-08-19T03:44:08;25.90;;;17.02;;
19004;SDS011;9635;52.078;8.648;2022-08-19T03:49:18;30.13;;;19.15;;
19004;SDS011;9635;52.078;8.648;2022-08-19T03:54:28;29.83;;;19.48;;
19004;SDS011;9635;52.078;8.648;2022-08-19T03:59:34;26.77;;;18.40;;
19004;SDS011;9635;52.078;8.648;2022-08-19T04:04:39;28.52;;;18.92;;
19004;SDS011;9635;52.078;8.648;2022-08-19T04:09:44;24.63;;;18.52;;
19004;SDS011;9635;52.078;8.648;2022-08-19T04:14:51;17.25;;;11.07;;
19004;SDS011;9635;52.078;8.648;2022-08-19T04:19:54;17.70;;;12.02;;
19004;SDS011;9635;52.078;8.648;2022-08-19T04:24:57;18.70;;;13.50;;
19004;SDS011;9635;52.078;8.648;2022-08-19T04:30:02;18.63;;;13.50;;
19004;SDS011;9635;52.078;8.648;2022-08-19T04:35:06;18.58;;;13.35;;
19004;SDS011;9635;52.078;8.648;2022-08-19T04:40:19;11.57;;;9.93;;
19004;SDS011;9635;52.078;8.648;2022-08-19T04:45:41;22.75;;;15.48;;
19004;SDS011;9635;52.078;8.648;2022-08-19T04:50:45;18.10;;;13.02;;
19004;SDS011;9635;52.078;8.648;2022-08-19T04:55:47;22.30;;;14.07;;
19004;SDS011;9635;52.078;8.648;2022-08-19T05:00:52;14.50;;;12.30;;
19004;SDS011;9635;52.078;8.648;2022-08-19T05:05:56;17.85;;;12.45;;
19004;SDS011;9635;52.078;8.648;2022-08-19T05:10:59;16.92;;;13.10;;
19004;SDS011;9635;52.078;8.648;2022-08-19T05:16:04;16.23;;;11.77;;
19004;SDS011;9635;52.078;8.648;2022-08-19T05:21:07;21.58;;;16.15;;
19004;SDS011;9635;52.078;8.648;2022-08-19T05:26:28;19.50;;;13.25;;
19004;SDS011;9635;52.078;8.648;2022-08-19T05:31:33;20.15;;;13.50;;
19004;SDS011;9635;52.078;8.648;2022-08-19T05:36:42;22.40;;;14.30;;
19004;SDS011;9635;52.078;8.648;2022-08-19T05:41:48;18.55;;;13.40;;
19004;SDS011;9635;52.078;8.648;2022-08-19T05:46:53;16.88;;;13.43;;
19004;SDS011;9635;52.078;8.648;2022-08-19T05:51:56;21.25;;;15.77;;
19004;SDS011;9635;52.078;8.648;2022-08-19T05:57:00;19.15;;;14.35;;
19004;SDS011;9635;52.078;8.648;2022-08-19T06:02:05;19.27;;;13.20;;
19004;SDS011;9635;52.078;8.648;2022-08-19T06:07:09;23.77;;;17.88;;
19004;SDS011;9635;52.078;8.648;2022-08-19T06:12:13;16.60;;;12.35;;
19004;SDS011;9635;52.078;8.648;2022-08-19T06:17:20;20.40;;;15.77;;
19004;SDS011;9635;52.078;8.648;2022-08-19T06:22:23;16.40;;;12.75;;
19004;SDS011;9635;52.078;8.648;2022-08-19T06:27:26;18.33;;;13.90;;
19004;SDS011;9635;52.078;8.648;2022-08-19T06:32:32;18.02;;;13.10;;
19004;SDS011;9635;52.078;8.648;2022-08-19T06:37:35;18.67;;;12.80;;
19004;SDS011;9635;52.078;8.648;2022-08-19T06:42:44;12.82;;;9.98;;
19004;SDS011;9635;52.078;8.648;2022-08-19T06:47:57;13.40;;;10.53;;
19004;SDS011;9635;52.078;8.648;2022-08-19T06:52:59;13.38;;;10.73;;
19004;SDS011;9635;52.078;8.648;2022-08-19T06:58:05;12.77;;;9.20;;
19004;SDS011;9635;52.078;8.648;2022-08-19T07:03:09;10.32;;;7.57;;
19004;SDS011;9635;52.078;8.648;2022-08-19T07:08:13;9.95;;;7.43;;
19004;SDS011;9635;52.078;8.648;2022-08-19T07:13:18;9.18;;;7.35;;
19004;SDS011;9635;52.078;8.648;2022-08-19T07:18:24;6.25;;;5.10;;
19004;SDS011;9635;52.078;8.648;2022-08-19T07:23:27;9.00;;;6.82;;
19004;SDS011;9635;52.078;8.648;2022-08-19T07:28:30;9.73;;;7.18;;
19004;SDS011;9635;52.078;8.648;2022-08-19T07:33:36;7.40;;;5.72;;
19004;SDS011;9635;52.078;8.648;2022-08-19T07:38:39;9.30;;;6.47;;
19004;SDS011;9635;52.078;8.648;2022-08-19T07:43:45;6.13;;;5.35;;
19004;SDS011;9635;52.078;8.648;2022-08-19T07:48:50;7.13;;;5.82;;
19004;SDS011;9635;52.078;8.648;2022-08-19T07:53:54;8.38;;;5.88;;
19004;SDS011;9635;52.078;8.648;2022-08-19T07:58:56;8.02;;;5.82;;
19004;SDS011;9635;52.078;8.648;2022-08-19T08:04:01;7.63;;;6.10;;
19004;SDS011;9635;52.078;8.648;2022-08-19T08:16:08;8.25;;;6.75;;
19004;SDS011;9635;52.078;8.648;2022-08-19T08:21:16;9.20;;;6.40;;
19004;SDS011;9635;52.078;8.648;2022-08-19T08:26:19;8.63;;;6.22;;
19004;SDS011;9635;52.078;8.648;2022-08-19T08:31:21;9.05;;;6.13;;
19004;SDS011;9635;52.078;8.648;2022-08-19T08:36:26;8.02;;;6.40;;
19004;SDS011;9635;52.078;8.648;2022-08-19T08:41:36;7.15;;;6.55;;
19004;SDS011;9635;52.078;8.648;2022-08-19T08:46:46;6.53;;;5.57;;
19004;SDS011;9635;52.078;8.648;2022-08-19T08:51:58;6.13;;;5.53;;
19004;SDS011;9635;52.078;8.648;2022-08-19T08:57:07;7.30;;;5.93;;
19004;SDS011;9635;52.078;8.648;2022-08-19T09:02:15;7.13;;;5.85;;
19004;SDS011;9635;52.078;8.648;2022-08-19T09:07:23;7.75;;;5.90;;
19004;SDS011;9635;52.078;8.648;2022-08-19T09:12:50;6.25;;;5.15;;
19004;SDS011;9635;52.078;8.648;2022-08-19T09:18:00;5.43;;;4.40;;
19004;SDS011;9635;52.078;8.648;2022-08-19T09:23:08;5.78;;;4.97;;
19004;SDS011;9635;52.078;8.648;2022-08-19T09:28:12;6.80;;;5.10;;
19004;SDS011;9635;52.078;8.648;2022-08-19T09:33:23;9.10;;;4.72;;
19004;SDS011;9635;52.078;8.648;2022-08-19T09:38:27;7.65;;;5.00;;
19004;SDS011;9635;52.078;8.648;2022-08-19T09:43:30;10.23;;;4.43;;
19004;SDS011;9635;52.078;8.648;2022-08-19T09:48:45;4.20;;;3.80;;
19004;SDS011;9635;52.078;8.648;2022-08-19T09:53:51;4.95;;;4.13;;
19004;SDS011;9635;52.078;8.648;2022-08-19T09:58:57;7.32;;;3.75;;
19004;SDS011;9635;52.078;8.648;2022-08-19T10:04:00;3.83;;;3.35;;
19004;SDS011;9635;52.078;8.648;2022-08-19T10:09:21;3.78;;;2.90;;
19004;SDS011;9635;52.078;8.648;2022-08-19T10:14:34;2.65;;;2.25;;
19004;SDS011;9635;52.078;8.648;2022-08-19T10:19:39;2.75;;;2.53;;
19004;SDS011;9635;52.078;8.648;2022-08-19T10:24:56;3.15;;;2.75;;
19004;SDS011;9635;52.078;8.648;2022-08-19T10:29:59;3.95;;;2.10;;
19004;SDS011;9635;52.078;8.648;2022-08-19T10:35:04;4.35;;;2.60;;
19004;SDS011;9635;52.078;8.648;2022-08-19T10:40:11;3.20;;;2.88;;
19004;SDS011;9635;52.078;8.648;2022-08-19T10:45:14;4.63;;;3.38;;
19004;SDS011;9635;52.078;8.648;2022-08-19T10:50:17;6.15;;;3.25;;
19004;SDS011;9635;52.078;8.648;2022-08-19T10:55:39;4.47;;;3.20;;
19004;SDS011;9635;52.078;8.648;2022-08-19T11:06:04;2.70;;;2.50;;
19004;SDS011;9635;52.078;8.648;2022-08-19T11:11:10;3.00;;;2.80;;
19004;SDS011;9635;52.078;8.648;2022-08-19T11:16:14;3.25;;;2.75;;
19004;SDS011;9635;52.078;8.648;2022-08-19T11:21:19;4.35;;;3.05;;
19004;SDS011;9635;52.078;8.648;2022-08-19T11:26:26;2.90;;;2.30;;
19004;SDS011;9635;52.078;8.648;2022-08-19T11:31:32;2.72;;;2.00;;
19004;SDS011;9635;52.078;8.648;2022-08-19T11:36:37;2.13;;;1.98;;
19004;SDS011;9635;52.078;8.648;2022-08-19T11:41:43;2.58;;;2.25;;
19004;SDS011;9635;52.078;8.648;2022-08-19T11:46:46;2.13;;;1.85;;
19004;SDS011;9635;52.078;8.648;2022-08-19T11:51:49;1.83;;;1.63;;
19004;SDS011;9635;52.078;8.648;2022-08-19T11:56:55;2.55;;;1.73;;
19004;SDS011;9635;52.078;8.648;2022-08-19T12:01:58;2.60;;;2.38;;
19004;SDS011;9635;52.078;8.648;2022-08-19T12:07:01;2.15;;;1.95;;
19004;SDS011;9635;52.078;8.648;2022-08-19T12:12:06;2.13;;;1.98;;
19004;SDS011;9635;52.078;8.648;2022-08-19T12:17:09;3.35;;;1.90;;
19004;SDS011;9635;52.078;8.648;2022-08-19T12:22:14;2.80;;;1.98;;
19004;SDS011;9635;52.078;8.648;2022-08-19T12:27:18;3.15;;;2.13;;
19004;SDS011;9635;52.078;8.648;2022-08-19T12:32:40;1.80;;;1.70;;
19004;SDS011;9635;52.078;8.648;2022-08-19T12:37:43;2.70;;;2.10;;
19004;SDS011;9635;52.078;8.648;2022-08-19T12:42:58;2.30;;;2.10;;
19004;SDS011;9635;52.078;8.648;2022-08-19T12:48:01;2.40;;;2.20;;
19004;SDS011;9635;52.078;8.648;2022-08-19T12:53:25;3.47;;;2.00;;
19004;SDS011;9635;52.078;8.648;2022-08-19T12:58:31;2.28;;;2.08;;
19004;SDS011;9635;52.078;8.648;2022-08-19T13:03:35;2.30;;;2.10;;
19004;SDS011;9635;52.078;8.648;2022-08-19T13:08:41;2.83;;;2.00;;
19004;SDS011;9635;52.078;8.648;2022-08-19T13:13:50;3.45;;;2.30;;
19004;SDS011;9635;52.078;8.648;2022-08-19T13:18:56;2.13;;;1.90;;
19004;SDS011;9635;52.078;8.648;2022-08-19T13:24:00;2.97;;;2.70;;
19004;SDS011;9635;52.078;8.648;2022-08-19T13:29:04;2.28;;;2.08;;
19004;SDS011;9635;52.078;8.648;2022-08-19T13:34:28;2.90;;;2.70;;
19004;SDS011;9635;52.078;8.648;2022-08-19T13:39:34;3.45;;;2.13;;
19004;SDS011;9635;52.078;8.648;2022-08-19T13:44:39;2.70;;;2.47;;
19004;SDS011;9635;52.078;8.648;2022-08-19T13:49:42;2.25;;;2.03;;
19004;SDS011;9635;52.078;8.648;2022-08-19T13:54:48;2.35;;;2.15;;
19004;SDS011;9635;52.078;8.648;2022-08-19T13:59:52;2.72;;;2.30;;
19004;SDS011;9635;52.078;8.648;2022-08-19T14:04:55;2.03;;;1.88;;
19004;SDS011;9635;52.078;8.648;2022-08-19T14:09:59;3.83;;;2.20;;
19004;SDS011;9635;52.078;8.648;2022-08-19T14:15:03;2.60;;;2.38;;
19004;SDS011;9635;52.078;8.648;2022-08-19T14:20:09;2.85;;;2.05;;
19004;SDS011;9635;52.078;8.648;2022-08-19T14:25:21;4.18;;;2.03;;
19004;SDS011;9635;52.078;8.648;2022-08-19T14:30:28;2.58;;;2.20;;
19004;SDS011;9635;52.078;8.648;2022-08-19T14:35:32;2.45;;;2.25;;
19004;SDS011;9635;52.078;8.648;2022-08-19T14:47:00;2.75;;;2.20;;
19004;SDS011;9635;52.078;8.648;2022-08-19T14:52:03;2.30;;;2.10;;
19004;SDS011;9635;52.078;8.648;2022-08-19T14:57:06;3.00;;;2.15;;
19004;SDS011;9635;52.078;8.648;2022-08-19T15:02:11;2.30;;;2.20;;
19004;SDS011;9635;52.078;8.648;2022-08-19T15:07:34;2.63;;;2.42;;
19004;SDS011;9635;52.078;8.648;2022-08-19T15:12:38;2.70;;;2.50;;
19004;SDS011;9635;52.078;8.648;2022-08-19T15:17:43;4.80;;;2.40;;
19004;SDS011;9635;52.078;8.648;2022-08-19T15:22:50;3.22;;;2.47;;
19004;SDS011;9635;52.078;8.648;2022-08-19T15:27:53;3.33;;;2.15;;
19004;SDS011;9635;52.078;8.648;2022-08-19T15:32:58;2.40;;;2.20;;
19004;SDS011;9635;52.078;8.648;2022-08-19T15:38:01;5.63;;;2.13;;
19004;SDS011;9635;52.078;8.648;2022-08-19T15:43:04;4.13;;;2.20;;
19004;SDS011;9635;52.078;8.648;2022-08-19T15:48:08;2.85;;;2.10;;
19004;SDS011;9635;52.078;8.648;2022-08-19T15:53:11;2.33;;;2.13;;
19004;SDS011;9635;52.078;8.648;2022-08-19T15:58:14;2.47;;;2.28;;
19004;SDS011;9635;52.078;8.648;2022-08-19T16:03:36;2.55;;;2.20;;
19004;SDS011;9635;52.078;8.648;2022-08-19T16:08:57;3.25;;;2.38;;
19004;SDS011;9635;52.078;8.648;2022-08-19T16:14:03;2.60;;;2.40;;
19004;SDS011;9635;52.078;8.648;2022-08-19T16:19:11;3.25;;;2.30;;
19004;SDS011;9635;52.078;8.648;2022-08-19T16:24:18;3.90;;;3.05;;
19004;SDS011;9635;52.078;8.648;2022-08-19T16:29:22;5.32;;;2.60;;
19004;SDS011;9635;52.078;8.648;2022-08-19T16:34:40;2.67;;;2.28;;
19004;SDS011;9635;52.078;8.648;2022-08-19T16:39:44;4.38;;;2.70;;
19004;SDS011;9635;52.078;8.648;2022-08-19T16:44:48;3.83;;;2.53;;
19004;SDS011;9635;52.078;8.648;2022-08-19T16:50:14;3.00;;;2.65;;
19004;SDS011;9635;52.078;8.648;2022-08-19T16:55:33;2.70;;;2.50;;
19004;SDS011;9635;52.078;8.648;2022-08-19T17:00:38;2.80;;;2.60;;
19004;SDS011;9635;52.078;8.648;2022-08-19T17:05:43;3.72;;;3.00;;
19004;SDS011;9635;52.078;8.648;2022-08-19T17:10:47;2.90;;;2.70;;
19004;SDS011;9635;52.078;8.648;2022-08-19T17:16:10;3.08;;;2.88;;
19004;SDS011;9635;52.078;8.648;2022-08-19T17:21:14;3.75;;;3.45;;
19004;SDS011;9635;52.078;8.648;2022-08-19T17:26:17;2.83;;;2.65;;
19004;SDS011;9635;52.078;8.648;2022-08-19T17:31:22;4.05;;;3.20;;
19004;SDS011;9635;52.078;8.648;2022-08-19T17:36:29;3.30;;;3.00;;
19004;SDS011;9635;52.078;8.648;2022-08-19T17:41:33;3.63;;;3.33;;
19004;SDS011;9635;52.078;8.648;2022-08-19T17:46:36;4.43;;;3.00;;
19004;SDS011;9635;52.078;8.648;2022-08-19T17:51:42;3.42;;;3.00;;
19004;SDS011;9635;52.078;8.648;2022-08-19T17:56:46;3.55;;;3.15;;
19004;SDS011;9635;52.078;8.648;2022-08-19T18:01:49;5.07;;;3.30;;
19004;SDS011;9635;52.078;8.648;2022-08-19T18:06:56;4.47;;;4.07;;
19004;SDS011;9635;52.078;8.648;2022-08-19T18:12:04;6.10;;;3.65;;
19004;SDS011;9635;52.078;8.648;2022-08-19T18:17:09;4.30;;;4.00;;
19004;SDS011;9635;52.078;8.648;2022-08-19T18:22:21;8.60;;;4.40;;
19004;SDS011;9635;52.078;8.648;2022-08-19T18:27:27;3.95;;;3.55;;
19004;SDS011;9635;52.078;8.648;2022-08-19T18:32:30;5.38;;;4.25;;
19004;SDS011;9635;52.078;8.648;2022-08-19T18:37:35;4.78;;;4.38;;
19004;SDS011;9635;52.078;8.648;2022-08-19T18:42:43;5.47;;;4.60;;
19004;SDS011;9635;52.078;8.648;2022-08-19T18:48:04;5.32;;;4.00;;
19004;SDS011;9635;52.078;8.648;2022-08-19T18:53:30;4.70;;;4.07;;
19004;SDS011;9635;52.078;8.648;2022-08-19T18:58:36;6.65;;;4.47;;
19004;SDS011;9635;52.078;8.648;2022-08-19T19:03:40;4.50;;;4.20;;
19004;SDS011;9635;52.078;8.648;2022-08-19T19:08:47;5.93;;;4.50;;
19004;SDS011;9635;52.078;8.648;2022-08-19T19:13:51;5.18;;;4.53;;
19004;SDS011;9635;52.078;8.648;2022-08-19T19:18:55;4.78;;;4.30;;
19004;SDS011;9635;52.078;8.648;2022-08-19T19:23:59;6.25;;;4.20;;
19004;SDS011;9635;52.078;8.648;2022-08-19T19:29:03;5.47;;;4.05;;
19004;SDS011;9635;52.078;8.648;2022-08-19T19:34:06;4.80;;;4.40;;
19004;SDS011;9635;52.078;8.648;2022-08-19T19:39:31;4.70;;;4.25;;
19004;SDS011;9635;52.078;8.648;2022-08-19T19:44:47;4.80;;;4.40;;
19004;SDS011;9635;52.078;8.648;2022-08-19T19:49:52;5.25;;;4.75;;
19004;SDS011;9635;52.078;8.648;2022-08-19T19:55:17;9.00;;;5.43;;
19004;SDS011;9635;52.078;8.648;2022-08-19T20:00:21;5.28;;;4.78;;
19004;SDS011;9635;52.078;8.648;2022-08-19T20:05:24;5.60;;;5.10;;
19004;SDS011;9635;52.078;8.648;2022-08-19T20:10:29;7.60;;;6.55;;
19004;SDS011;9635;52.078;8.648;2022-08-19T20:15:33;6.35;;;4.60;;
19004;SDS011;9635;52.078;8.648;2022-08-19T20:20:43;5.38;;;4.82;;
19004;SDS011;9635;52.078;8.648;2022-08-19T20:25:48;5.30;;;4.90;;
19004;SDS011;9635;52.078;8.648;2022-08-19T20:30:52;8.45;;;5.28;;
19004;SDS011;9635;52.078;8.648;2022-08-19T20:35:55;5.85;;;5.28;;
19004;SDS011;9635;52.078;8.648;2022-08-19T20:40:59;8.07;;;4.93;;
19004;SDS011;9635;52.078;8.648;2022-08-19T20:46:02;5.90;;;5.35;;
19004;SDS011;9635;52.078;8.648;2022-08-19T20:51:05;6.28;;;5.22;;
19004;SDS011;9635;52.078;8.648;2022-08-19T20:56:10;5.80;;;5.30;;
19004;SDS011;9635;52.078;8.648;2022-08-19T21:01:14;5.65;;;5.13;;
19004;SDS011;9635;52.078;8.648;2022-08-19T21:06:17;5.72;;;5.18;;
19004;SDS011;9635;52.078;8.648;2022-08-19T21:11:25;8.10;;;5.88;;
19004;SDS011;9635;52.078;8.648;2022-08-19T21:16:27;9.15;;;7.10;;
19004;SDS011;9635;52.078;8.648;2022-08-19T21:21:32;8.07;;;7.30;;
19004;SDS011;9635;52.078;8.648;2022-08-19T21:26:37;11.30;;;7.68;;
19004;SDS011;9635;52.078;8.648;2022-08-19T21:31:40;8.07;;;7.38;;
19004;SDS011;9635;52.078;8.648;2022-08-19T21:36:43;6.50;;;6.00;;
19004;SDS011;9635;52.078;8.648;2022-08-19T21:41:47;9.02;;;7.55;;
19004;SDS011;9635;52.078;8.648;2022-08-19T21:46:50;8.95;;;8.10;;
19004;SDS011;9635;52.078;8.648;2022-08-19T21:51:53;9.40;;;8.40;;
19004;SDS011;9635;52.078;8.648;2022-08-19T21:56:57;11.45;;;9.00;;
19004;SDS011;9635;52.078;8.648;2022-08-19T22:02:00;10.68;;;9.60;;
19004;SDS011;9635;52.078;8.648;2022-08-19T22:07:20;11.32;;;9.40;;
19004;SDS011;9635;52.078;8.648;2022-08-19T22:12:25;11.90;;;10.60;;
19004;SDS011;9635;52.078;8.648;2022-08-19T22:17:31;11.43;;;10.18;;
19004;SDS011;9635;52.078;8.648;2022-08-19T22:22:34;10.18;;;9.25;;
19004;SDS011;9635;52.078;8.648;2022-08-19T22:27:39;12.02;;;10.77;;
19004;SDS011;9635;52.078;8.648;2022-08-19T22:32:43;13.40;;;10.90;;
19004;SDS011;9635;52.078;8.648;2022-08-19T22:37:47;17.17;;;11.50;;
19004;SDS011;9635;52.078;8.648;2022-08-19T22:42:56;16.90;;;12.32;;
19004;SDS011;9635;52.078;8.648;2022-08-19T22:48:00;18.08;;;13.55;;
19004;SDS011;9635;52.078;8.648;2022-08-19T22:53:04;15.23;;;12.82;;
19004;SDS011;9635;52.078;8.648;2022-08-19T22:58:10;14.25;;;12.75;;
19004;SDS011;9635;52.078;8.648;2022-08-19T23:03:14;14.65;;;12.30;;
19004;SDS011;9635;52.078;8.648;2022-08-19T23:08:17;17.30;;;13.70;;
19004;SDS011;9635;52.078;8.648;2022-08-19T23:13:22;16.05;;;12.80;;
19004;SDS011;9635;52.078;8.648;2022-08-19T23:18:25;17.33;;;13.02;;
19004;SDS011;9635;52.078;8.648;2022-08-19T23:23:28;19.20;;;15.18;;
19004;SDS011;9635;52.078;8.648;2022-08-19T23:28:32;17.95;;;14.88;;
19004;SDS011;9635;52.078;8.648;2022-08-19T23:33:52;17.77;;;14.87;;
19004;SDS011;9635;52.078;8.648;2022-08-19T23:38:55;20.60;;;17.20;;
19004;SDS011;9635;52.078;8.648;2022-08-19T23:44:01;20.35;;;17.10;;
19004;SDS011;9635;52.078;8.648;2022-08-19T23:49:04;23.90;;;19.25;;
19004;SDS011;9635;52.078;8.648;2022-08-19T23:54:07;22.45;;;18.23;;
19004;SDS011;9635;52.078;8.648;2022-08-19T23:59:11;21.23;;;17.65;;
